createdAt,value
2018-11-01T00:02:09.984Z,75.39
2018-11-01T00:04:38.881Z,74.96
2018-11-01T00:07:07.434Z,75.57
2018-11-01T00:09:36.075Z,75.52
2018-11-01T00:12:04.698Z,75.16
2018-11-01T00:14:33.391Z,75.95
2018-11-01T00:17:02.145Z,75.53
2018-11-01T00:19:30.797Z,75.83
2018-11-01T00:21:59.325Z,76.20
2018-11-01T00:24:27.933Z,76.10
2018-11-01T00:26:56.568Z,76.50
2018-11-01T00:29:25.290Z,76.72
2018-11-01T00:31:53.875Z,75.86
2018-11-01T00:34:22.430Z,76.54
2018-11-01T00:36:50.982Z,76.73
2018-11-01T00:39:19.549Z,76.62
2018-11-01T00:41:48.373Z,76.76
2018-11-01T00:44:16.976Z,76.48
2018-11-01T00:46:45.508Z,76.60
2018-11-01T00:49:14.069Z,76.71
2018-11-01T00:51:42.641Z,76.73
2018-11-01T00:54:11.184Z,76.10
2018-11-01T00:56:39.756Z,76.01
2018-11-01T00:59:08.277Z,76.13
2018-11-01T01:01:36.830Z,76.58
2018-11-01T01:04:05.490Z,75.98
2018-11-01T01:06:34.363Z,76.26
2018-11-01T01:09:03.446Z,76.06
2018-11-01T01:11:32.026Z,75.65
2018-11-01T01:14:00.560Z,75.23
2018-11-01T01:16:29.113Z,76.06
2018-11-01T01:18:57.724Z,75.80
2018-11-01T01:21:26.489Z,75.60
2018-11-01T01:23:55.015Z,75.42
2018-11-01T01:26:23.664Z,75.40
2018-11-01T01:28:52.244Z,76.02
2018-11-01T01:31:20.779Z,75.33
2018-11-01T01:33:49.289Z,75.68
2018-11-01T01:36:17.839Z,75.27
2018-11-01T01:38:47.405Z,76.09
2018-11-01T01:41:16.004Z,75.48
2018-11-01T01:43:44.549Z,75.71
2018-11-01T01:46:13.097Z,75.26
2018-11-01T01:48:41.873Z,75.08
2018-11-01T01:51:10.390Z,75.00
2018-11-01T01:53:38.994Z,75.40
2018-11-01T01:56:07.531Z,75.01
2018-11-01T01:58:36.050Z,74.48
2018-11-01T02:01:04.805Z,74.14
2018-11-01T02:03:33.345Z,74.54
2018-11-01T02:06:01.910Z,74.73
2018-11-01T02:08:30.483Z,74.86
2018-11-01T02:10:59.064Z,74.70
2018-11-01T02:13:27.713Z,74.40
2018-11-01T02:15:56.250Z,75.37
2018-11-01T02:18:24.842Z,75.04
2018-11-01T02:20:53.404Z,74.46
2018-11-01T02:23:22.006Z,74.92
2018-11-01T02:25:50.549Z,75.35
2018-11-01T02:28:19.799Z,74.68
2018-11-01T02:30:48.383Z,75.16
2018-11-01T02:33:16.922Z,75.45
2018-11-01T02:35:45.465Z,75.11
2018-11-01T02:38:14.048Z,74.96
2018-11-01T02:40:42.755Z,75.25
2018-11-01T02:45:41.940Z,76.01
2018-11-01T02:48:10.524Z,76.27
2018-11-01T02:50:39.114Z,75.58
2018-11-01T02:53:07.723Z,75.52
2018-11-01T02:55:36.318Z,76.50
2018-11-01T02:58:04.866Z,76.57
2018-11-01T03:00:33.975Z,76.57
2018-11-01T03:03:02.665Z,76.76
2018-11-01T03:05:31.310Z,76.52
2018-11-01T03:07:59.975Z,75.81
2018-11-01T03:10:33.229Z,76.16
2018-11-01T03:13:02.636Z,75.60
2018-11-01T03:15:31.289Z,75.81
2018-11-01T03:18:01.101Z,74.98
2018-11-01T03:20:29.906Z,75.32
2018-11-01T03:22:58.537Z,75.32
2018-11-01T03:25:27.155Z,74.45
2018-11-01T03:27:55.784Z,75.28
2018-11-01T03:30:25.564Z,75.29
2018-11-01T03:32:54.917Z,75.06
2018-11-01T03:35:24.285Z,75.21
2018-11-01T03:37:53.616Z,74.61
2018-11-01T03:40:22.437Z,74.97
2018-11-01T03:42:51.127Z,75.36
2018-11-01T03:45:19.710Z,74.24
2018-11-01T03:47:48.635Z,74.52
2018-11-01T03:50:17.429Z,75.14
2018-11-01T03:52:46.000Z,75.14
2018-11-01T03:55:14.539Z,74.56
2018-11-01T03:57:43.495Z,74.81
2018-11-01T04:00:14.517Z,74.07
2018-11-01T04:02:45.086Z,74.26
2018-11-01T04:05:13.660Z,74.09
2018-11-01T04:07:43.435Z,74.09
2018-11-01T04:10:12.306Z,74.24
2018-11-01T04:12:42.161Z,75.02
2018-11-01T04:15:12.762Z,75.22
2018-11-01T04:17:41.350Z,74.89
2018-11-01T04:20:11.177Z,74.95
2018-11-01T04:22:40.505Z,74.29
2018-11-01T04:25:09.069Z,74.38
2018-11-01T04:27:37.865Z,74.33
2018-11-01T04:30:07.228Z,74.38
2018-11-01T04:32:35.750Z,74.34
2018-11-01T04:35:04.630Z,74.65
2018-11-01T04:37:33.339Z,74.41
2018-11-01T04:40:01.997Z,74.48
2018-11-01T04:42:30.557Z,75.29
2018-11-01T04:44:59.336Z,74.87
2018-11-01T04:47:28.054Z,74.64
2018-11-01T04:49:56.745Z,75.13
2018-11-01T04:52:25.274Z,75.25
2018-11-01T04:54:53.869Z,75.28
2018-11-01T04:57:22.445Z,75.58
2018-11-01T04:59:50.991Z,74.88
2018-11-01T05:02:19.516Z,75.06
2018-11-01T05:04:48.156Z,75.71
2018-11-01T05:07:16.889Z,75.02
2018-11-01T05:09:45.528Z,75.10
2018-11-01T05:12:14.186Z,74.75
2018-11-01T05:14:42.790Z,74.68
2018-11-01T05:17:11.301Z,74.33
2018-11-01T05:19:39.902Z,73.05
2018-11-01T05:22:08.762Z,71.94
2018-11-01T05:24:37.519Z,71.07
2018-11-01T05:27:06.747Z,70.66
2018-11-01T05:29:35.312Z,70.27
2018-11-01T05:32:03.926Z,68.82
2018-11-01T05:34:32.509Z,69.29
2018-11-01T05:37:01.233Z,68.80
2018-11-01T05:39:29.807Z,68.24
2018-11-01T05:41:58.381Z,67.77
2018-11-01T05:44:26.913Z,68.09
2018-11-01T05:46:55.509Z,67.17
2018-11-01T05:49:24.214Z,67.25
2018-11-01T05:51:52.820Z,66.76
2018-11-01T05:54:21.372Z,67.28
2018-11-01T05:56:49.911Z,66.09
2018-11-01T05:59:18.479Z,66.71
2018-11-01T06:01:52.800Z,66.29
2018-11-01T06:04:21.411Z,65.27
2018-11-01T06:06:50.007Z,64.94
2018-11-01T06:09:23.860Z,65.19
2018-11-01T06:11:52.401Z,65.13
2018-11-01T06:14:21.047Z,64.12
2018-11-01T06:16:49.658Z,63.70
2018-11-01T06:19:18.188Z,64.11
2018-11-01T06:21:46.830Z,62.80
2018-11-01T06:24:15.805Z,62.84
2018-11-01T06:26:44.350Z,62.91
2018-11-01T06:29:12.963Z,62.91
2018-11-01T06:31:41.497Z,61.94
2018-11-01T06:34:14.390Z,62.73
2018-11-01T06:36:42.931Z,62.09
2018-11-01T06:39:11.462Z,61.21
2018-11-01T06:41:40.002Z,60.99
2018-11-01T06:44:08.537Z,61.74
2018-11-01T06:46:37.155Z,61.25
2018-11-01T06:49:06.355Z,60.67
2018-11-01T06:51:34.882Z,59.15
2018-11-01T06:54:03.477Z,58.97
2018-11-01T06:56:31.993Z,59.19
2018-11-01T06:59:00.658Z,58.42
2018-11-01T07:01:29.342Z,59.07
2018-11-01T07:03:57.911Z,58.22
2018-11-01T07:06:26.499Z,58.16
2018-11-01T07:08:55.054Z,58.53
2018-11-01T07:11:23.685Z,58.13
2018-11-01T07:13:52.358Z,57.96
2018-11-01T07:16:20.869Z,57.40
2018-11-01T07:18:49.424Z,57.49
2018-11-01T07:21:17.973Z,56.75
2018-11-01T07:23:46.658Z,56.47
2018-11-01T07:26:15.341Z,56.70
2018-11-01T07:28:44.358Z,56.17
2018-11-01T07:31:12.907Z,55.51
2018-11-01T07:33:41.654Z,54.62
2018-11-01T07:36:10.291Z,54.82
2018-11-01T07:38:38.914Z,56.38
2018-11-01T07:41:08.151Z,55.93
2018-11-01T07:43:41.339Z,55.45
2018-11-01T07:46:22.416Z,56.31
2018-11-01T07:48:51.045Z,56.46
2018-11-01T07:51:21.763Z,55.71
2018-11-01T07:53:51.639Z,55.27
2018-11-01T07:56:20.445Z,55.29
2018-11-01T07:58:49.241Z,55.33
2018-11-01T08:01:18.353Z,55.68
2018-11-01T08:03:46.934Z,55.04
2018-11-01T08:06:15.464Z,54.97
2018-11-01T08:08:44.076Z,55.60
2018-11-01T08:11:12.794Z,54.57
2018-11-01T08:13:41.462Z,54.71
2018-11-01T08:16:10.101Z,54.68
2018-11-01T08:18:38.942Z,53.81
2018-11-01T08:21:07.786Z,54.32
2018-11-01T08:23:36.517Z,54.07
2018-11-01T08:26:05.382Z,54.14
2018-11-01T08:28:33.925Z,54.64
2018-11-01T08:31:02.462Z,53.02
2018-11-01T08:33:31.014Z,53.20
2018-11-01T08:35:59.756Z,52.16
2018-11-01T08:38:28.375Z,50.85
2018-11-01T08:40:57.194Z,50.96
2018-11-01T08:43:25.966Z,50.16
2018-11-01T08:45:54.518Z,50.66
2018-11-01T08:48:23.562Z,50.74
2018-11-01T08:50:52.234Z,51.08
2018-11-01T08:53:21.703Z,50.24
2018-11-01T08:55:50.376Z,50.75
2018-11-01T08:58:19.041Z,50.73
2018-11-01T09:00:47.755Z,50.49
2018-11-01T09:03:16.852Z,51.00
2018-11-01T09:05:45.607Z,50.72
2018-11-01T09:08:14.186Z,50.36
2018-11-01T09:10:42.721Z,50.69
2018-11-01T09:13:11.569Z,50.18
2018-11-01T09:15:40.977Z,49.89
2018-11-01T09:18:09.682Z,49.52
2018-11-01T09:20:38.265Z,49.08
2018-11-01T09:23:07.045Z,50.09
2018-11-01T09:25:35.702Z,50.17
2018-11-01T09:28:04.325Z,48.81
2018-11-01T09:30:33.044Z,48.56
2018-11-01T09:33:01.840Z,48.11
2018-11-01T09:35:30.470Z,48.31
2018-11-01T09:38:02.765Z,49.38
2018-11-01T09:40:31.330Z,48.58
2018-11-01T09:42:59.853Z,49.05
2018-11-01T09:45:28.444Z,48.98
2018-11-01T09:47:57.455Z,48.96
2018-11-01T09:50:26.985Z,48.98
2018-11-01T09:52:55.819Z,49.15
2018-11-01T09:55:24.860Z,49.28
2018-11-01T09:57:55.470Z,49.26
2018-11-01T10:00:24.760Z,50.35
2018-11-01T10:02:54.105Z,49.35
2018-11-01T10:05:25.862Z,49.78
2018-11-01T10:07:54.680Z,49.94
2018-11-01T10:10:23.266Z,49.76
2018-11-01T10:12:51.812Z,49.54
2018-11-01T10:15:20.377Z,48.94
2018-11-01T10:17:49.444Z,49.02
2018-11-01T10:20:17.861Z,48.83
2018-11-01T10:22:46.556Z,49.43
2018-11-01T10:25:16.184Z,48.70
2018-11-01T10:27:44.970Z,48.93
2018-11-01T10:30:17.660Z,48.06
2018-11-01T10:32:46.654Z,47.54
2018-11-01T10:35:16.436Z,47.74
2018-11-01T10:37:52.029Z,47.46
2018-11-01T10:40:22.453Z,46.80
2018-11-01T10:42:51.421Z,47.63
2018-11-01T10:45:20.425Z,47.00
2018-11-01T10:47:50.046Z,47.06
2018-11-01T10:50:20.360Z,47.25
2018-11-01T10:52:49.895Z,47.54
2018-11-01T10:55:18.827Z,47.33
2018-11-01T10:57:47.675Z,48.13
2018-11-01T11:00:21.703Z,47.69
2018-11-01T11:02:51.593Z,47.86
2018-11-01T11:05:21.395Z,47.89
2018-11-01T11:07:50.261Z,47.39
2018-11-01T11:10:19.080Z,47.63
2018-11-01T11:12:47.629Z,47.45
2018-11-01T11:15:16.177Z,47.75
2018-11-01T11:17:44.745Z,47.71
2018-11-01T11:20:13.596Z,47.67
2018-11-01T11:22:42.335Z,47.93
2018-11-01T11:25:12.085Z,47.35
2018-11-01T11:27:40.788Z,47.53
2018-11-01T11:30:10.767Z,47.54
2018-11-01T11:32:39.620Z,47.38
2018-11-01T11:35:08.773Z,48.00
2018-11-01T11:37:37.342Z,47.88
2018-11-01T11:40:07.345Z,47.95
2018-11-01T11:42:35.987Z,48.02
2018-11-01T11:45:05.004Z,47.50
2018-11-01T11:47:33.545Z,47.62
2018-11-01T11:50:02.070Z,48.23
2018-11-01T11:52:32.724Z,47.93
2018-11-01T11:55:03.315Z,47.34
2018-11-01T11:57:33.957Z,47.87
2018-11-01T12:00:02.594Z,48.19
2018-11-01T12:02:32.192Z,47.69
2018-11-01T12:05:00.852Z,47.53
2018-11-01T12:07:29.373Z,47.45
2018-11-01T12:09:57.950Z,48.21
2018-11-01T12:12:26.572Z,47.73
2018-11-01T12:14:55.093Z,47.05
2018-11-01T12:17:23.667Z,47.79
2018-11-01T12:19:52.256Z,47.76
2018-11-01T12:22:21.508Z,47.42
2018-11-01T12:24:50.743Z,47.97
2018-11-01T12:27:20.566Z,48.32
2018-11-01T12:29:49.840Z,48.22
2018-11-01T12:32:27.723Z,48.73
2018-11-01T12:34:57.097Z,48.90
2018-11-01T12:37:27.761Z,49.02
2018-11-01T12:39:57.364Z,48.92
2018-11-01T12:42:31.682Z,49.06
2018-11-01T12:45:00.616Z,49.12
2018-11-01T12:47:32.201Z,49.66
2018-11-01T12:50:01.176Z,49.39
2018-11-01T12:52:30.212Z,49.98
2018-11-01T12:54:59.119Z,50.02
2018-11-01T12:57:28.132Z,50.06
2018-11-01T12:59:58.517Z,50.30
2018-11-01T13:02:27.550Z,50.30
2018-11-01T13:04:57.939Z,50.15
2018-11-01T13:07:27.036Z,50.21
2018-11-01T13:09:55.806Z,50.31
2018-11-01T13:12:24.498Z,50.38
2018-11-01T13:14:53.102Z,50.54
2018-11-01T13:17:21.852Z,50.29
2018-11-01T13:19:50.698Z,49.37
2018-11-01T13:22:19.246Z,49.65
2018-11-01T13:24:47.797Z,49.42
2018-11-01T13:27:16.398Z,49.37
2018-11-01T13:29:44.949Z,49.69
2018-11-01T13:32:15.152Z,49.80
2018-11-01T13:34:43.786Z,49.53
2018-11-01T13:37:12.521Z,48.74
2018-11-01T13:39:41.197Z,48.55
2018-11-01T13:42:09.947Z,48.26
2018-11-01T13:44:38.697Z,48.66
2018-11-01T13:47:07.259Z,47.63
2018-11-01T13:49:36.039Z,47.59
2018-11-01T13:52:04.630Z,47.73
2018-11-01T13:54:33.176Z,47.94
2018-11-01T13:57:02.003Z,47.41
2018-11-01T13:59:30.565Z,47.12
2018-11-01T14:01:59.133Z,46.90
2018-11-01T14:04:27.749Z,46.70
2018-11-01T14:06:56.349Z,46.30
2018-11-01T14:09:24.877Z,46.57
2018-11-01T14:11:53.457Z,46.37
2018-11-01T14:14:22.366Z,46.05
2018-11-01T14:16:50.768Z,46.10
2018-11-01T14:19:19.355Z,45.87
2018-11-01T14:21:47.897Z,45.49
2018-11-01T14:24:16.495Z,45.77
2018-11-01T14:26:45.124Z,46.05
2018-11-01T14:29:13.741Z,46.22
2018-11-01T14:31:42.282Z,46.18
2018-11-01T14:34:10.862Z,47.00
2018-11-01T14:36:39.482Z,46.74
2018-11-01T14:39:10.026Z,47.10
2018-11-01T14:41:38.597Z,47.58
2018-11-01T14:44:07.353Z,47.87
2018-11-01T14:46:36.042Z,48.50
2018-11-01T14:49:04.613Z,49.01
2018-11-01T14:51:33.746Z,49.41
2018-11-01T14:54:02.837Z,49.95
2018-11-01T14:56:32.374Z,50.16
2018-11-01T14:59:01.073Z,50.56
2018-11-01T15:01:28.540Z,51.45
2018-11-01T15:03:57.106Z,51.33
2018-11-01T15:06:25.681Z,51.98
2018-11-01T15:08:54.594Z,52.41
2018-11-01T15:11:23.647Z,52.62
2018-11-01T15:13:52.261Z,52.69
2018-11-01T15:16:20.823Z,52.86
2018-11-01T15:18:49.582Z,52.97
2018-11-01T15:21:18.417Z,53.17
2018-11-01T15:23:47.354Z,53.64
2018-11-01T15:26:16.004Z,53.51
2018-11-01T15:28:44.717Z,53.58
2018-11-01T15:31:13.348Z,53.78
2018-11-01T15:33:42.111Z,53.66
2018-11-01T15:36:10.832Z,53.51
2018-11-01T15:38:39.437Z,53.63
2018-11-01T15:41:12.390Z,53.67
2018-11-01T15:43:41.467Z,53.67
2018-11-01T15:46:10.884Z,53.69
2018-11-01T15:48:40.144Z,53.69
2018-11-01T15:51:09.655Z,53.75
2018-11-01T15:53:38.406Z,54.16
2018-11-01T15:56:07.112Z,54.12
2018-11-01T15:58:35.983Z,54.44
2018-11-01T16:01:05.312Z,55.04
2018-11-01T16:03:34.001Z,54.87
2018-11-01T16:06:03.037Z,55.28
2018-11-01T16:08:31.583Z,55.37
2018-11-01T16:11:00.241Z,55.56
2018-11-01T16:13:28.913Z,55.66
2018-11-01T16:15:57.551Z,55.88
2018-11-01T16:18:26.459Z,55.50
2018-11-01T16:20:55.050Z,55.45
2018-11-01T16:23:23.699Z,55.77
2018-11-01T16:25:52.432Z,55.78
2018-11-01T16:28:21.053Z,55.86
2018-11-01T16:30:49.637Z,55.89
2018-11-01T16:33:18.199Z,56.50
2018-11-01T16:35:46.784Z,56.57
2018-11-01T16:38:15.390Z,56.87
2018-11-01T16:40:43.962Z,57.43
2018-11-01T16:43:12.621Z,57.50
2018-11-01T16:45:41.563Z,58.19
2018-11-01T16:48:10.291Z,58.46
2018-11-01T16:50:38.941Z,59.09
2018-11-01T16:53:07.702Z,59.44
2018-11-01T16:55:36.339Z,59.17
2018-11-01T16:58:05.292Z,59.00
2018-11-01T17:00:33.894Z,58.84
2018-11-01T17:03:02.631Z,58.68
2018-11-01T17:05:31.237Z,58.56
2018-11-01T17:07:59.879Z,58.32
2018-11-01T17:10:28.482Z,57.63
2018-11-01T17:12:57.517Z,57.82
2018-11-01T17:15:26.053Z,57.62
2018-11-01T17:17:54.659Z,57.96
2018-11-01T17:20:23.214Z,57.57
2018-11-01T17:22:52.497Z,57.66
2018-11-01T17:25:21.211Z,57.55
2018-11-01T17:27:49.793Z,57.60
2018-11-01T17:30:18.403Z,57.38
2018-11-01T17:32:50.537Z,57.09
2018-11-01T17:35:19.102Z,57.15
2018-11-01T17:37:47.753Z,56.91
2018-11-01T17:40:16.437Z,56.62
2018-11-01T17:42:45.511Z,56.89
2018-11-01T17:45:14.116Z,57.07
2018-11-01T17:47:43.271Z,56.89
2018-11-01T17:50:13.365Z,57.31
2018-11-01T17:52:42.518Z,57.14
2018-11-01T17:55:12.072Z,57.63
2018-11-01T17:57:41.022Z,57.92
2018-11-01T18:00:11.971Z,57.94
2018-11-01T18:02:41.488Z,57.88
2018-11-01T18:05:10.751Z,58.10
2018-11-01T18:07:39.909Z,58.03
2018-11-01T18:10:10.362Z,58.15
2018-11-01T18:12:39.087Z,58.11
2018-11-01T18:15:08.271Z,57.83
2018-11-01T18:17:36.946Z,57.76
2018-11-01T18:20:07.418Z,57.20
2018-11-01T18:22:36.054Z,57.12
2018-11-01T18:25:05.012Z,56.54
2018-11-01T18:27:33.757Z,56.29
2018-11-01T18:30:02.488Z,56.17
2018-11-01T18:32:31.928Z,56.04
2018-11-01T18:35:01.089Z,55.49
2018-11-01T18:37:30.591Z,55.67
2018-11-01T18:39:59.988Z,55.52
2018-11-01T18:42:29.610Z,55.66
2018-11-01T18:44:59.711Z,55.96
2018-11-01T18:47:29.196Z,56.08
2018-11-01T18:49:59.106Z,56.27
2018-11-01T18:52:28.492Z,56.25
2018-11-01T18:54:58.064Z,56.63
2018-11-01T18:57:28.044Z,57.05
2018-11-01T18:59:58.432Z,56.92
2018-11-01T19:02:29.525Z,57.01
2018-11-01T19:04:58.911Z,57.36
2018-11-01T19:07:30.961Z,56.84
2018-11-01T19:10:02.203Z,57.05
2018-11-01T19:12:33.649Z,56.91
2018-11-01T19:15:03.813Z,56.90
2018-11-01T19:17:35.283Z,56.85
2018-11-01T19:20:05.204Z,57.01
2018-11-01T19:22:34.863Z,57.23
2018-11-01T19:25:04.451Z,57.46
2018-11-01T19:27:33.844Z,57.88
2018-11-01T19:30:03.851Z,58.07
2018-11-01T19:32:33.247Z,58.28
2018-11-01T19:35:05.014Z,58.53
2018-11-01T19:37:34.771Z,58.63
2018-11-01T19:40:05.489Z,58.71
2018-11-01T19:42:35.195Z,58.71
2018-11-01T19:45:05.547Z,58.52
2018-11-01T19:47:35.180Z,58.90
2018-11-01T19:50:05.438Z,58.96
2018-11-01T19:52:35.526Z,59.19
2018-11-01T19:55:05.705Z,58.82
2018-11-01T19:57:35.842Z,59.32
2018-11-01T20:00:07.222Z,59.24
2018-11-01T20:02:37.377Z,59.41
2018-11-01T20:05:09.523Z,59.75
2018-11-01T20:07:40.090Z,59.57
2018-11-01T20:10:12.381Z,59.74
2018-11-01T20:12:43.309Z,60.44
2018-11-01T20:15:15.037Z,59.71
2018-11-01T20:17:45.778Z,59.24
2018-11-01T20:20:15.815Z,59.83
2018-11-01T20:22:48.007Z,60.09
2018-11-01T20:25:18.089Z,60.34
2018-11-01T20:27:48.313Z,59.77
2018-11-01T20:30:18.605Z,60.35
2018-11-01T20:32:48.587Z,60.73
2018-11-01T20:35:18.095Z,60.93
2018-11-01T20:37:47.433Z,60.40
2018-11-01T20:40:16.257Z,60.83
2018-11-01T20:42:44.938Z,60.09
2018-11-01T20:45:14.182Z,60.78
2018-11-01T20:47:42.785Z,60.97
2018-11-01T20:50:12.720Z,60.13
2018-11-01T20:52:41.495Z,61.34
2018-11-01T20:55:10.138Z,60.26
2018-11-01T20:57:38.835Z,60.84
2018-11-01T21:00:09.453Z,61.10
2018-11-01T21:02:38.225Z,61.36
2018-11-01T21:05:07.325Z,60.23
2018-11-01T21:07:36.059Z,60.12
2018-11-01T21:10:05.419Z,60.80
2018-11-01T21:12:33.998Z,60.75
2018-11-01T21:15:02.691Z,60.77
2018-11-01T21:17:31.281Z,61.55
2018-11-01T21:19:59.910Z,61.07
2018-11-01T21:22:28.649Z,61.86
2018-11-01T21:24:57.198Z,61.59
2018-11-01T21:27:25.924Z,61.86
2018-11-01T21:29:54.510Z,62.09
2018-11-01T21:32:23.281Z,61.88
2018-11-01T21:34:51.868Z,62.07
2018-11-01T21:37:21.468Z,61.87
2018-11-01T21:39:50.110Z,61.50
2018-11-01T21:42:18.687Z,61.89
2018-11-01T21:44:47.331Z,61.65
2018-11-01T21:47:16.046Z,61.39
2018-11-01T21:49:44.654Z,62.07
2018-11-01T21:52:13.283Z,62.16
2018-11-01T21:54:41.838Z,61.72
2018-11-01T21:57:10.453Z,61.83
2018-11-01T21:59:39.054Z,63.47
2018-11-01T22:02:07.670Z,63.43
2018-11-01T22:04:36.249Z,65.65
2018-11-01T22:07:05.488Z,67.76
2018-11-01T22:09:34.227Z,67.86
2018-11-01T22:12:03.306Z,68.82
2018-11-01T22:14:31.889Z,69.87
2018-11-01T22:17:00.420Z,70.40
2018-11-01T22:19:29.320Z,69.79
2018-11-01T22:21:58.121Z,70.19
2018-11-01T22:24:26.716Z,69.33
2018-11-01T22:26:55.254Z,69.52
2018-11-01T22:29:26.230Z,70.52
2018-11-01T22:31:54.800Z,71.36
2018-11-01T22:34:23.365Z,71.12
2018-11-01T22:36:51.925Z,70.44
2018-11-01T22:39:20.606Z,70.86
2018-11-01T22:41:51.149Z,71.76
2018-11-01T22:44:19.761Z,72.04
2018-11-01T22:46:48.359Z,71.81
2018-11-01T22:49:17.034Z,72.65
2018-11-01T22:51:45.619Z,72.22
2018-11-01T22:54:14.172Z,72.05
2018-11-01T22:56:42.767Z,72.33
2018-11-01T22:59:11.354Z,71.70
2018-11-01T23:01:39.935Z,71.54
2018-11-01T23:04:08.529Z,71.87
2018-11-01T23:06:37.266Z,71.00
2018-11-01T23:09:08.550Z,71.26
2018-11-01T23:11:37.526Z,71.63
2018-11-01T23:14:06.193Z,71.11
2018-11-01T23:16:35.093Z,71.11
2018-11-01T23:19:03.637Z,71.47
2018-11-01T23:21:32.201Z,71.83
2018-11-01T23:24:00.807Z,71.22
2018-11-01T23:26:29.433Z,71.66
2018-11-01T23:28:58.198Z,71.79
2018-11-01T23:31:27.296Z,72.35
2018-11-01T23:33:55.893Z,71.76
2018-11-01T23:36:23.611Z,72.90
2018-11-01T23:38:57.446Z,72.57
2018-11-01T23:41:31.378Z,72.68
2018-11-01T23:44:05.447Z,73.53
2018-11-01T23:46:40.035Z,74.52
2018-11-01T23:49:13.309Z,75.49
2018-11-01T23:51:42.558Z,75.50
2018-11-01T23:54:11.352Z,76.48
2018-11-01T23:56:40.115Z,77.46
2018-11-01T23:59:08.713Z,77.22
